Time;durP1;ratioP1;P1;durP2;ratioP2;P2;SDS_P1;SDS_P2;PMS_P1;PMS_P2;Temp;Humidity;BMP_temperature;BMP_pressure;BME280_temperature;BME280_humidity;BME280_pressure;Samples;Min_cycle;Max_cycle;Signal;HPM_P1;HPM_P2
2022/04/01 00:02:09;;;;;;;0.88;0.85;;;5.30;68.90;;;;;;4384012;32;20075;-72
2022/04/01 00:04:34;;;;;;;0.50;0.50;;;5.40;68.80;;;;;;4383715;32;20078;-71
2022/04/01 00:07:00;;;;;;;0.50;0.50;;;5.40;69.10;;;;;;4384100;32;20059;-71
2022/04/01 00:09:25;;;;;;;0.40;0.40;;;5.30;69.10;;;;;;4383821;32;20074;-71
2022/04/01 00:11:51;;;;;;;0.37;0.37;;;5.30;69.50;;;;;;4382988;32;20062;-71
2022/04/01 00:14:17;;;;;;;0.70;0.70;;;5.20;69.70;;;;;;4384253;32;20078;-71
2022/04/01 00:16:42;;;;;;;1.00;0.73;;;5.20;70.40;;;;;;4383307;32;20078;-71
2022/04/01 00:19:08;;;;;;;0.80;0.80;;;5.10;71.00;;;;;;4383986;32;20066;-71
2022/04/01 00:21:34;;;;;;;0.35;0.35;;;5.10;70.90;;;;;;4384025;32;20115;-71
2022/04/01 00:24:00;;;;;;;1.20;1.12;;;5.10;71.70;;;;;;4383978;32;20089;-71
2022/04/01 00:26:26;;;;;;;0.60;0.60;;;5.10;71.90;;;;;;4383767;32;20128;-71
2022/04/01 00:28:51;;;;;;;0.22;0.22;;;5.00;72.00;;;;;;4383613;32;20510;-71
2022/04/01 00:31:17;;;;;;;0.80;0.73;;;5.00;72.80;;;;;;4384589;32;20074;-72
2022/04/01 00:33:42;;;;;;;3.17;1.10;;;5.00;73.20;;;;;;4384207;32;20066;-72
2022/04/01 00:36:08;;;;;;;0.40;0.40;;;4.90;73.60;;;;;;4383899;32;20058;-71
2022/04/01 00:38:34;;;;;;;0.57;0.40;;;4.80;73.80;;;;;;4384081;32;20113;-71
2022/04/01 00:40:59;;;;;;;0.40;0.40;;;4.80;74.30;;;;;;4383775;32;20062;-71
2022/04/01 00:43:27;;;;;;;0.30;0.30;;;4.80;74.70;;;;;;4396522;32;20076;-71
2022/04/01 00:45:53;;;;;;;3.78;0.73;;;4.80;74.70;;;;;;4397953;32;20113;-71
2022/04/01 00:48:19;;;;;;;0.30;0.30;;;4.80;74.90;;;;;;4399739;32;20123;-71
2022/04/01 00:50:44;;;;;;;0.50;0.50;;;4.70;75.10;;;;;;4398021;32;20063;-71
2022/04/01 00:53:10;;;;;;;0.60;0.57;;;4.70;75.00;;;;;;4398496;32;20069;-72
2022/04/01 00:55:36;;;;;;;0.40;0.40;;;4.70;75.20;;;;;;4398204;32;20118;-72
2022/04/01 00:58:04;;;;;;;1.17;0.80;;;4.60;75.30;;;;;;4397841;32;20083;-72
2022/04/01 01:00:30;;;;;;;1.20;0.52;;;4.70;75.10;;;;;;4399193;32;20079;-71
2022/04/01 01:02:57;;;;;;;0.47;0.47;;;4.80;75.20;;;;;;4398344;32;20070;-72
2022/04/01 01:05:23;;;;;;;0.60;0.60;;;4.60;75.20;;;;;;4398308;32;20456;-71
2022/04/01 01:07:48;;;;;;;0.52;0.52;;;4.60;75.30;;;;;;4399967;32;20113;-71
2022/04/01 01:10:16;;;;;;;0.73;0.73;;;4.70;75.50;;;;;;4398683;32;20580;-72
2022/04/01 01:12:43;;;;;;;0.40;0.40;;;4.60;75.40;;;;;;4397846;32;20070;-71
2022/04/01 01:15:13;;;;;;;0.40;0.40;;;4.60;75.30;;;;;;4397758;32;20126;-71
2022/04/01 01:17:39;;;;;;;0.52;0.52;;;4.40;75.80;;;;;;4399510;32;20070;-71
2022/04/01 01:20:12;;;;;;;0.30;0.30;;;4.50;75.80;;;;;;4398241;32;20063;-71
2022/04/01 01:22:39;;;;;;;0.40;0.40;;;4.40;75.80;;;;;;4398557;32;20400;-71
2022/04/01 01:25:07;;;;;;;3.75;1.40;;;4.40;76.00;;;;;;4397697;32;20078;-72
2022/04/01 01:27:33;;;;;;;0.98;0.77;;;4.40;75.50;;;;;;4398430;32;20061;-71
2022/04/01 01:30:00;;;;;;;0.43;0.43;;;4.30;75.60;;;;;;4397936;32;20073;-71
2022/04/01 01:32:28;;;;;;;0.60;0.60;;;4.30;76.00;;;;;;4389719;32;20078;-71
2022/04/01 01:34:54;;;;;;;1.60;0.60;;;4.30;75.80;;;;;;4383624;32;20518;-71
2022/04/01 01:37:20;;;;;;;0.40;0.40;;;4.20;75.90;;;;;;4383454;32;20074;-71
2022/04/01 01:39:45;;;;;;;0.68;0.68;;;4.10;75.80;;;;;;4382660;32;20556;-72
2022/04/01 01:42:11;;;;;;;0.40;0.40;;;4.10;75.90;;;;;;4388244;32;20086;-71
2022/04/01 01:44:36;;;;;;;10.15;1.77;;;4.10;76.20;;;;;;4397740;32;20074;-71
2022/04/01 01:47:03;;;;;;;8.15;1.37;;;4.10;76.80;;;;;;4397653;32;20069;-71
2022/04/01 01:49:28;;;;;;;0.47;0.47;;;4.20;75.80;;;;;;4398958;32;20105;-71
2022/04/01 01:54:43;;;;;;;0.40;0.40;;;4.20;75.80;;;;;;4386094;32;20078;-72
2022/04/01 01:57:09;;;;;;;2.90;0.80;;;4.10;76.00;;;;;;4387378;32;20074;-72
2022/04/01 01:59:35;;;;;;;0.50;0.50;;;4.10;75.80;;;;;;4383574;32;20124;-72
2022/04/01 02:02:05;;;;;;;29.90;1.30;;;4.10;76.00;;;;;;4383898;32;20090;-74
2022/04/01 02:04:31;;;;;;;0.40;0.40;;;4.10;76.00;;;;;;4383686;32;20462;-73
2022/04/01 02:06:57;;;;;;;0.85;0.75;;;4.10;76.10;;;;;;4383534;32;20506;-72
2022/04/01 02:09:22;;;;;;;0.45;0.45;;;4.20;75.90;;;;;;4382719;32;20087;-72
2022/04/01 02:11:48;;;;;;;0.40;0.40;;;4.10;75.90;;;;;;4381989;32;20078;-72
2022/04/01 02:14:14;;;;;;;0.30;0.30;;;4.10;76.00;;;;;;4383215;32;20062;-72
2022/04/01 02:16:43;;;;;;;0.40;0.40;;;4.20;75.70;;;;;;4382001;32;20062;-72
2022/04/01 02:19:09;;;;;;;0.50;0.50;;;4.10;76.20;;;;;;4383022;32;20075;-72
2022/04/01 02:21:34;;;;;;;0.60;0.60;;;4.00;76.30;;;;;;4382554;32;20439;-72
2022/04/01 02:24:00;;;;;;;0.40;0.40;;;4.00;76.30;;;;;;4384153;32;20058;-72
2022/04/01 02:26:25;;;;;;;0.57;0.57;;;3.90;76.80;;;;;;4381997;32;20070;-72
2022/04/01 02:28:51;;;;;;;0.43;0.43;;;3.90;76.50;;;;;;4382704;32;20059;-72
2022/04/01 02:31:18;;;;;;;0.40;0.40;;;3.90;77.10;;;;;;4382124;32;20062;-73
2022/04/01 02:33:43;;;;;;;3.65;2.10;;;3.90;77.00;;;;;;4383147;32;20459;-72
2022/04/01 02:36:11;;;;;;;0.50;0.50;;;4.00;77.20;;;;;;4382369;32;20109;-72
2022/04/01 02:38:39;;;;;;;0.50;0.50;;;3.90;77.40;;;;;;4383343;32;20062;-72
2022/04/01 02:41:06;;;;;;;0.40;0.40;;;3.80;77.40;;;;;;4383078;32;20066;-72
2022/04/01 02:43:31;;;;;;;7.03;1.02;;;3.80;77.50;;;;;;4368159;32;20428;-72
2022/04/01 02:45:57;;;;;;;0.73;0.60;;;3.80;77.80;;;;;;4366652;32;20062;-72
2022/04/01 02:48:22;;;;;;;0.47;0.47;;;3.90;77.80;;;;;;4367169;32;20083;-72
2022/04/01 02:50:48;;;;;;;0.60;0.60;;;3.90;78.10;;;;;;4369179;32;20066;-72
2022/04/01 02:53:16;;;;;;;0.30;0.30;;;3.80;78.10;;;;;;4368424;32;20416;-72
2022/04/01 02:55:42;;;;;;;0.60;0.60;;;3.80;77.90;;;;;;4367561;32;20479;-72
2022/04/01 02:58:09;;;;;;;0.40;0.40;;;3.70;77.60;;;;;;4367149;32;20063;-72
2022/04/01 03:00:37;;;;;;;1.95;0.73;;;3.60;77.90;;;;;;4367090;32;20130;-71
2022/04/01 03:03:06;;;;;;;1.25;0.60;;;3.60;78.30;;;;;;4368652;32;20118;-71
2022/04/01 03:05:36;;;;;;;1.95;0.98;;;3.60;77.90;;;;;;4367424;32;20076;-71
2022/04/01 03:08:05;;;;;;;1.08;1.02;;;3.60;78.20;;;;;;4369412;32;20062;-72
2022/04/01 03:10:32;;;;;;;0.50;0.50;;;3.60;78.10;;;;;;4370272;32;20063;-71
2022/04/01 03:12:57;;;;;;;0.43;0.43;;;3.70;78.40;;;;;;4368932;32;20071;-71
2022/04/01 03:15:24;;;;;;;0.77;0.77;;;3.60;78.80;;;;;;4369349;32;20355;-71
2022/04/01 03:17:50;;;;;;;0.40;0.40;;;3.60;78.90;;;;;;4369551;32;20063;-71
2022/04/01 03:20:16;;;;;;;1.55;1.20;;;3.60;79.10;;;;;;4370124;32;20071;-71
2022/04/01 03:22:43;;;;;;;16.35;1.20;;;3.60;78.70;;;;;;4369813;32;20459;-71
2022/04/01 03:25:15;;;;;;;0.60;0.60;;;3.60;79.30;;;;;;4369534;32;20071;-71
2022/04/01 03:27:41;;;;;;;0.40;0.40;;;3.50;79.40;;;;;;4370273;32;20062;-71
2022/04/01 03:30:09;;;;;;;0.52;0.52;;;3.50;79.80;;;;;;4370170;32;20075;-72
2022/04/01 03:32:37;;;;;;;0.40;0.40;;;3.50;79.80;;;;;;4370187;32;20382;-72
2022/04/01 03:35:05;;;;;;;0.30;0.30;;;3.40;80.30;;;;;;4370424;32;20078;-72
2022/04/01 03:37:31;;;;;;;0.40;0.40;;;3.40;80.40;;;;;;4369808;32;20118;-71
2022/04/01 03:39:58;;;;;;;0.50;0.50;;;3.50;80.50;;;;;;4369747;32;20490;-71
2022/04/01 03:42:23;;;;;;;0.40;0.40;;;3.50;80.40;;;;;;4378294;32;20533;-72
2022/04/01 03:44:49;;;;;;;0.50;0.50;;;3.40;80.90;;;;;;4399735;32;20074;-71
2022/04/01 03:47:21;;;;;;;2.00;1.30;;;3.40;81.00;;;;;;4400604;32;20530;-72
2022/04/01 03:49:51;;;;;;;0.40;0.40;;;3.40;81.00;;;;;;4399536;32;20491;-72
2022/04/01 03:52:18;;;;;;;0.95;0.70;;;3.40;81.20;;;;;;4399448;32;20121;-72
2022/04/01 03:54:47;;;;;;;0.60;0.60;;;3.40;81.00;;;;;;4399827;32;20062;-72
2022/04/01 03:57:15;;;;;;;0.70;0.68;;;3.40;80.90;;;;;;4399706;32;20509;-72
2022/04/01 03:59:41;;;;;;;0.30;0.30;;;3.30;81.20;;;;;;4399709;32;20087;-72
2022/04/01 04:02:11;;;;;;;3.58;1.25;;;3.20;81.30;;;;;;4399418;32;20506;-72
2022/04/01 04:04:38;;;;;;;0.40;0.40;;;3.20;81.60;;;;;;4399478;32;20082;-72
2022/04/01 04:07:06;;;;;;;2.25;0.95;;;3.10;81.70;;;;;;4399075;32;20053;-71
2022/04/01 04:09:34;;;;;;;0.65;0.65;;;3.20;81.60;;;;;;4398915;32;20055;-71
2022/04/01 04:12:01;;;;;;;0.40;0.40;;;3.10;81.30;;;;;;4397539;32;20054;-72
2022/04/01 04:14:28;;;;;;;0.40;0.40;;;3.10;81.50;;;;;;4399139;32;20545;-72
2022/04/01 04:16:56;;;;;;;0.30;0.30;;;3.10;81.60;;;;;;4399504;32;20078;-72
2022/04/01 04:19:32;;;;;;;0.50;0.50;;;3.10;81.60;;;;;;4398341;32;20086;-72
2022/04/01 04:22:13;;;;;;;0.65;0.65;;;3.10;81.70;;;;;;4388476;32;20391;-72
2022/04/01 04:25:04;;;;;;;0.82;0.82;;;3.10;81.70;;;;;;4380200;32;20550;-72
2022/04/01 04:27:30;;;;;;;0.50;0.50;;;3.10;82.10;;;;;;4383530;32;20534;-73
2022/04/01 04:30:05;;;;;;;0.68;0.68;;;3.10;81.70;;;;;;4383465;32;20051;-72
2022/04/01 04:32:39;;;;;;;0.93;0.93;;;3.00;81.90;;;;;;4384781;32;20129;-72
2022/04/01 04:35:08;;;;;;;3.20;1.73;;;3.10;81.70;;;;;;4385188;32;20396;-72
2022/04/01 04:37:36;;;;;;;0.32;0.32;;;3.10;81.50;;;;;;4384313;32;20070;-72
2022/04/01 04:40:04;;;;;;;0.35;0.35;;;3.00;81.60;;;;;;4385232;32;20557;-72
2022/04/01 04:42:32;;;;;;;0.40;0.40;;;3.00;82.00;;;;;;4391936;32;20518;-71
2022/04/01 04:44:58;;;;;;;1.30;1.20;;;3.00;82.00;;;;;;4398418;32;20079;-72
2022/04/01 04:47:27;;;;;;;0.40;0.40;;;2.90;82.00;;;;;;4388251;32;20058;-71
2022/04/01 04:49:57;;;;;;;0.50;0.50;;;3.00;82.10;;;;;;4383515;32;20506;-72
2022/04/01 04:52:28;;;;;;;1.17;0.98;;;3.00;82.10;;;;;;4381941;32;20130;-73
2022/04/01 04:54:55;;;;;;;0.50;0.50;;;3.00;81.90;;;;;;4374690;32;20073;-72
2022/04/01 04:57:21;;;;;;;1.40;1.10;;;3.00;81.80;;;;;;4383811;32;20062;-71
2022/04/01 04:59:48;;;;;;;0.50;0.50;;;3.10;81.70;;;;;;4382228;32;20087;-72
2022/04/01 05:02:26;;;;;;;0.30;0.30;;;3.10;82.00;;;;;;4376250;32;20621;-72
2022/04/01 05:05:18;;;;;;;1.73;1.48;;;3.00;81.90;;;;;;4374431;32;20051;-72
2022/04/01 05:08:05;;;;;;;0.40;0.40;;;3.00;82.00;;;;;;4370886;32;20073;-71
2022/04/01 05:10:46;;;;;;;0.40;0.40;;;2.90;82.20;;;;;;4382709;32;20059;-72
2022/04/01 05:13:30;;;;;;;0.30;0.30;;;2.90;82.40;;;;;;4382361;32;20082;-72
2022/04/01 05:16:05;;;;;;;3.20;1.40;;;2.90;83.10;;;;;;4383124;32;20058;-71
2022/04/01 05:18:55;;;;;;;0.40;0.40;;;2.90;82.10;;;;;;4369227;32;20070;-71
2022/04/01 05:21:23;;;;;;;0.85;0.85;;;3.00;82.10;;;;;;4381186;32;20094;-71
2022/04/01 05:23:58;;;;;;;0.40;0.40;;;2.90;82.70;;;;;;4382739;32;20552;-71
2022/04/01 05:26:38;;;;;;;1.35;0.82;;;2.90;83.10;;;;;;4368489;32;20184;-72
2022/04/01 05:29:07;;;;;;;12.35;1.90;;;2.90;83.20;;;;;;4376759;32;20110;-73
2022/04/01 05:31:42;;;;;;;1.55;1.23;;;3.00;82.90;;;;;;4357897;32;20095;-71
2022/04/01 05:34:19;;;;;;;0.30;0.30;;;2.90;83.10;;;;;;4375918;32;20404;-72
2022/04/01 05:36:46;;;;;;;0.70;0.70;;;3.00;83.30;;;;;;4376032;32;20079;-71
2022/04/01 05:39:12;;;;;;;0.52;0.52;;;3.00;83.60;;;;;;4371429;32;20165;-71
2022/04/01 05:41:39;;;;;;;1.27;0.90;;;3.00;83.80;;;;;;4378986;32;20150;-71
2022/04/01 05:44:09;;;;;;;1.30;1.00;;;3.10;83.70;;;;;;4363373;32;20063;-71
2022/04/01 05:46:36;;;;;;;0.40;0.40;;;3.20;83.30;;;;;;4365847;32;20464;-71
2022/04/01 05:49:03;;;;;;;0.50;0.50;;;3.00;83.40;;;;;;4359226;32;20440;-70
2022/04/01 05:51:30;;;;;;;6.18;1.27;;;3.10;83.90;;;;;;4360126;32;20121;-71
2022/04/01 05:53:57;;;;;;;0.60;0.60;;;3.00;83.90;;;;;;4351908;32;20343;-70
2022/04/01 05:56:23;;;;;;;0.95;0.70;;;3.00;84.20;;;;;;4348612;32;20365;-69
2022/04/01 05:58:48;;;;;;;0.40;0.40;;;3.00;84.40;;;;;;4336189;32;20112;-67
2022/04/01 06:01:40;;;;;;;0.35;0.35;;;3.00;84.50;;;;;;4336100;32;20118;-67
2022/04/01 06:04:32;;;;;;;0.50;0.50;;;3.10;84.90;;;;;;4326875;32;20086;-68
2022/04/01 06:07:06;;;;;;;0.40;0.40;;;3.10;84.80;;;;;;4339280;32;20466;-69
2022/04/01 06:10:05;;;;;;;0.50;0.50;;;3.10;85.30;;;;;;4346859;32;20086;-69
2022/04/01 06:12:54;;;;;;;0.30;0.30;;;3.00;85.10;;;;;;4328524;32;20201;-69
2022/04/01 06:15:37;;;;;;;0.30;0.30;;;3.00;85.70;;;;;;4313629;32;20063;-70
2022/04/01 06:18:41;;;;;;;0.37;0.37;;;3.00;85.50;;;;;;4328286;32;20174;-68
2022/04/01 06:21:13;;;;;;;1.35;1.02;;;3.10;85.90;;;;;;4321898;32;20106;-68
2022/04/01 06:23:58;;;;;;;0.65;0.65;;;3.20;85.50;;;;;;4332453;32;20193;-68
2022/04/01 06:26:27;;;;;;;0.30;0.30;;;3.10;85.50;;;;;;4335809;32;20095;-68
2022/04/01 06:28:55;;;;;;;0.30;0.30;;;3.10;85.60;;;;;;4336913;32;20794;-67
2022/04/01 06:31:25;;;;;;;0.30;0.30;;;3.00;85.80;;;;;;4344574;32;20814;-67
2022/04/01 06:34:07;;;;;;;0.95;0.95;;;2.90;86.20;;;;;;4340480;32;20123;-68
2022/04/01 06:36:39;;;;;;;2.05;1.15;;;3.00;86.60;;;;;;4346002;32;20164;-67
2022/04/01 06:39:08;;;;;;;6.05;1.42;;;3.20;86.60;;;;;;4343903;32;21204;-68
2022/04/01 06:41:42;;;;;;;1.45;0.55;;;3.30;86.20;;;;;;4339026;32;20087;-67
2022/04/01 06:44:08;;;;;;;0.40;0.40;;;3.40;85.70;;;;;;4360300;32;20113;-69
2022/04/01 06:46:34;;;;;;;0.40;0.40;;;3.40;85.60;;;;;;4357972;32;20078;-67
2022/04/01 06:49:00;;;;;;;0.30;0.30;;;3.40;85.00;;;;;;4353484;32;21334;-68
2022/04/01 06:51:26;;;;;;;0.47;0.47;;;3.30;85.30;;;;;;4361682;32;20163;-68
2022/04/01 06:53:52;;;;;;;0.68;0.68;;;3.40;85.40;;;;;;4361940;32;20082;-68
2022/04/01 06:56:17;;;;;;;9.75;1.05;;;3.40;85.90;;;;;;4350728;32;20070;-68
2022/04/01 06:58:45;;;;;;;0.35;0.35;;;3.50;84.60;;;;;;4355275;32;20100;-69
2022/04/01 07:01:14;;;;;;;0.35;0.35;;;3.50;84.30;;;;;;4360018;32;20568;-68
2022/04/01 07:03:39;;;;;;;0.30;0.30;;;3.50;85.00;;;;;;4363930;32;20093;-67
2022/04/01 07:06:06;;;;;;;3.42;1.75;;;3.60;84.50;;;;;;4353864;32;20118;-68
2022/04/01 07:08:32;;;;;;;0.30;0.30;;;3.60;84.10;;;;;;4347830;32;20087;-67
2022/04/01 07:10:57;;;;;;;0.50;0.50;;;3.70;84.10;;;;;;4365186;32;20438;-68
2022/04/01 07:13:23;;;;;;;1.60;0.70;;;3.80;84.40;;;;;;4351976;32;20534;-67
2022/04/01 07:15:50;;;;;;;0.30;0.30;;;3.90;83.60;;;;;;4352747;32;20098;-68
2022/04/01 07:18:18;;;;;;;0.52;0.47;;;4.00;84.10;;;;;;4355590;32;20114;-67
2022/04/01 07:20:43;;;;;;;0.30;0.30;;;4.00;84.00;;;;;;4352395;32;20209;-68
2022/04/01 07:23:08;;;;;;;0.50;0.50;;;4.00;84.20;;;;;;4347263;32;21117;-68
2022/04/01 07:25:34;;;;;;;0.50;0.50;;;4.10;84.30;;;;;;4354281;32;20102;-69
2022/04/01 07:28:00;;;;;;;1.10;1.05;;;4.10;83.90;;;;;;4348198;32;20158;-68
2022/04/01 07:30:26;;;;;;;0.73;0.73;;;4.20;83.80;;;;;;4346415;32;20266;-67
2022/04/01 07:32:56;;;;;;;3.83;1.85;;;4.10;83.30;;;;;;4346437;32;20160;-67
2022/04/01 07:35:22;;;;;;;1.27;1.05;;;4.20;83.80;;;;;;4347255;32;81324;-70
2022/04/01 07:37:47;;;;;;;0.50;0.50;;;4.40;83.30;;;;;;4357155;32;20090;-68
2022/04/01 07:40:14;;;;;;;1.75;1.30;;;4.40;83.10;;;;;;4354797;32;20090;-68
2022/04/01 07:42:39;;;;;;;0.73;0.73;;;4.50;83.80;;;;;;4356694;32;20502;-67
2022/04/01 07:45:06;;;;;;;3.17;1.10;;;4.60;83.20;;;;;;4359384;32;20134;-68
2022/04/01 07:47:32;;;;;;;2.75;1.15;;;4.60;82.90;;;;;;4351393;32;20426;-70
2022/04/01 07:49:59;;;;;;;0.43;0.43;;;4.60;82.90;;;;;;4341768;32;20197;-69
2022/04/01 07:52:25;;;;;;;0.43;0.43;;;4.70;82.70;;;;;;4331406;32;20122;-69
2022/04/01 07:54:51;;;;;;;1.48;0.85;;;4.70;82.10;;;;;;4342607;32;20709;-69
2022/04/01 07:57:18;;;;;;;3.60;1.75;;;4.70;82.40;;;;;;4343531;32;20546;-69
2022/04/01 07:59:44;;;;;;;0.50;0.50;;;4.70;82.30;;;;;;4344138;32;20102;-69
2022/04/01 08:02:09;;;;;;;0.40;0.40;;;4.70;81.90;;;;;;4343648;32;20448;-69
2022/04/01 08:04:35;;;;;;;0.40;0.40;;;4.70;81.90;;;;;;4340630;32;20078;-69
2022/04/01 08:07:01;;;;;;;0.30;0.30;;;4.90;82.10;;;;;;4335606;32;20146;-69
2022/04/01 08:09:27;;;;;;;0.82;0.77;;;4.90;80.80;;;;;;4346454;32;20094;-68
2022/04/01 08:11:53;;;;;;;0.98;0.77;;;4.90;80.30;;;;;;4335019;32;20925;-67
2022/04/01 08:14:20;;;;;;;0.30;0.30;;;4.90;80.30;;;;;;4339722;32;20094;-67
2022/04/01 08:16:46;;;;;;;0.62;0.62;;;5.00;79.70;;;;;;4337975;32;20162;-68
2022/04/01 08:19:13;;;;;;;0.47;0.47;;;5.10;79.90;;;;;;4348454;32;20111;-67
2022/04/01 08:21:39;;;;;;;0.73;0.73;;;5.30;79.70;;;;;;4339003;32;20169;-68
2022/04/01 08:24:07;;;;;;;0.70;0.70;;;5.20;78.60;;;;;;4337748;32;21675;-66
2022/04/01 08:26:32;;;;;;;0.47;0.47;;;5.30;77.90;;;;;;4335908;32;20198;-68
2022/04/01 08:28:58;;;;;;;0.50;0.50;;;5.30;77.50;;;;;;4344912;32;20197;-68
2022/04/01 08:31:24;;;;;;;5.93;1.67;;;5.40;77.10;;;;;;4353737;32;20187;-68
2022/04/01 08:33:50;;;;;;;0.40;0.40;;;5.40;76.60;;;;;;4343396;32;20111;-69
2022/04/01 08:36:17;;;;;;;1.02;1.00;;;5.50;76.10;;;;;;4347569;32;20103;-70
2022/04/01 08:38:43;;;;;;;0.43;0.43;;;5.50;75.30;;;;;;4350758;32;20860;-68
2022/04/01 08:41:10;;;;;;;5.15;1.10;;;5.50;75.20;;;;;;4348525;32;20114;-68
2022/04/01 08:43:37;;;;;;;0.47;0.47;;;5.60;74.90;;;;;;4345699;32;20338;-69
2022/04/01 08:46:07;;;;;;;0.55;0.50;;;5.60;73.50;;;;;;4345690;32;20095;-68
2022/04/01 08:48:33;;;;;;;5.22;2.10;;;5.70;73.10;;;;;;4351751;32;20106;-72
2022/04/01 08:50:59;;;;;;;0.37;0.37;;;5.70;73.00;;;;;;4350943;32;20082;-67
2022/04/01 08:53:25;;;;;;;0.37;0.37;;;5.80;72.50;;;;;;4344279;32;20082;-67
2022/04/01 08:55:55;;;;;;;0.30;0.30;;;5.90;72.40;;;;;;4351385;32;20122;-66
2022/04/01 08:58:21;;;;;;;0.60;0.60;;;5.90;70.20;;;;;;4346770;32;20078;-69
2022/04/01 09:00:48;;;;;;;4.47;1.75;;;5.90;69.20;;;;;;4351999;32;20095;-68
2022/04/01 09:03:16;;;;;;;0.30;0.30;;;6.00;68.20;;;;;;4339099;32;20101;-68
2022/04/01 09:05:45;;;;;;;0.47;0.40;;;6.10;68.40;;;;;;4340600;32;20682;-68
2022/04/01 09:08:14;;;;;;;0.40;0.40;;;6.10;66.30;;;;;;4351082;32;20074;-68
2022/04/01 09:11:00;;;;;;;11.20;1.02;;;6.10;65.90;;;;;;4338655;32;20078;-68
2022/04/01 09:13:29;;;;;;;1.17;1.02;;;6.30;65.80;;;;;;4344923;32;20155;-68
2022/04/01 09:15:55;;;;;;;0.40;0.40;;;6.30;66.00;;;;;;4346383;32;20129;-68
2022/04/01 09:18:38;;;;;;;0.30;0.30;;;6.50;65.90;;;;;;4350935;32;20110;-68
2022/04/01 09:21:05;;;;;;;0.50;0.50;;;6.60;66.40;;;;;;4347414;32;20126;-67
2022/04/01 09:23:31;;;;;;;0.32;0.32;;;6.60;65.20;;;;;;4350737;32;20577;-67
2022/04/01 09:25:58;;;;;;;42.60;3.55;;;6.50;65.10;;;;;;4352267;32;20078;-70
2022/04/01 09:28:29;;;;;;;0.40;0.40;;;6.40;65.40;;;;;;4344990;32;20123;-69
2022/04/01 09:30:56;;;;;;;;;;;6.40;65.40;;;;;;4349537;32;20070;-69
2022/04/01 09:33:21;;;;;;;0.40;0.40;;;6.50;65.30;;;;;;4346807;32;19981;-67
2022/04/01 09:35:51;;;;;;;0.40;0.40;;;6.50;66.00;;;;;;4351521;32;20468;-68
2022/04/01 09:38:17;;;;;;;0.90;0.90;;;6.50;64.60;;;;;;4355428;32;20090;-67
2022/04/01 09:40:44;;;;;;;0.90;0.62;;;6.40;64.20;;;;;;4359692;32;20090;-69
2022/04/01 09:43:10;;;;;;;0.70;0.70;;;6.60;64.60;;;;;;4356233;32;20154;-68
2022/04/01 09:45:36;;;;;;;0.50;0.43;;;6.80;64.40;;;;;;4359011;32;21724;-69
2022/04/01 09:48:05;;;;;;;0.30;0.30;;;6.90;63.60;;;;;;4355527;32;20995;-69
2022/04/01 09:50:33;;;;;;;1.08;0.68;;;7.00;64.10;;;;;;4357609;32;20679;-68
2022/04/01 09:53:19;;;;;;;3.72;1.02;;;7.20;63.10;;;;;;4360332;32;20102;-69
2022/04/01 09:55:48;;;;;;;0.93;0.50;;;7.50;63.10;;;;;;4355909;32;20520;-68
2022/04/01 09:58:16;;;;;;;0.62;0.62;;;7.60;62.40;;;;;;4357131;32;20102;-69
2022/04/01 10:00:42;;;;;;;0.40;0.40;;;7.70;61.90;;;;;;4353612;32;20105;-69
2022/04/01 10:03:10;;;;;;;0.47;0.47;;;7.60;60.00;;;;;;4355995;32;20098;-69
2022/04/01 10:05:37;;;;;;;0.22;0.22;;;7.50;60.50;;;;;;4359282;32;20074;-69
2022/04/01 10:08:05;;;;;;;0.30;0.30;;;7.50;60.10;;;;;;4361366;32;20241;-68
2022/04/01 10:10:31;;;;;;;24.35;1.80;;;7.50;60.10;;;;;;4355300;32;20085;-69
2022/04/01 10:13:01;;;;;;;0.37;0.37;;;7.60;61.00;;;;;;4361358;32;20164;-68
2022/04/01 10:15:29;;;;;;;0.45;0.45;;;8.10;61.00;;;;;;4350153;32;20130;-70
2022/04/01 10:17:58;;;;;;;0.35;0.35;;;8.20;60.80;;;;;;4342606;32;20098;-69
2022/04/01 10:20:33;;;;;;;1.48;0.85;;;8.30;59.70;;;;;;4342472;32;20117;-69
2022/04/01 10:23:03;;;;;;;2.12;0.50;;;8.50;59.50;;;;;;4349101;32;20510;-69
2022/04/01 10:25:33;;;;;;;0.82;0.62;;;8.40;58.80;;;;;;4357785;32;20131;-70
2022/04/01 10:28:02;;;;;;;0.40;0.40;;;8.40;59.50;;;;;;4360477;32;20095;-69
2022/04/01 10:30:31;;;;;;;0.32;0.32;;;8.60;59.00;;;;;;4362086;32;20504;-70
2022/04/01 10:32:58;;;;;;;0.55;0.43;;;8.50;57.90;;;;;;4366990;32;20102;-70
2022/04/01 10:35:31;;;;;;;0.60;0.60;;;8.50;58.50;;;;;;4358714;32;20181;-68
2022/04/01 10:38:16;;;;;;;0.52;0.52;;;8.70;59.60;;;;;;4360287;32;20468;-69
2022/04/01 10:40:45;;;;;;;7.18;3.25;;;8.90;58.60;;;;;;4366233;32;20641;-69
2022/04/01 10:43:26;;;;;;;0.37;0.37;;;9.00;58.30;;;;;;4364675;32;20219;-69
2022/04/01 10:46:13;;;;;;;1.20;0.60;;;9.00;59.10;;;;;;4364983;32;20127;-69
2022/04/01 10:52:18;;;;;;;0.60;0.60;;;9.00;59.60;;;;;;4334194;32;20430;-70
2022/04/01 10:54:47;;;;;;;2.22;1.35;;;9.20;59.30;;;;;;4353958;32;20554;-70
2022/04/01 10:57:28;;;;;;;1.00;0.95;;;9.40;58.70;;;;;;4347369;32;20177;-69
2022/04/01 10:59:58;;;;;;;0.50;0.50;;;9.50;58.20;;;;;;4351530;32;20086;-68
2022/04/01 11:02:23;;;;;;;0.30;0.30;;;9.50;58.20;;;;;;4349736;32;20133;-68
2022/04/01 11:04:51;;;;;;;0.40;0.40;;;9.50;57.30;;;;;;4349842;32;20113;-68
2022/04/01 11:07:27;;;;;;;0.30;0.30;;;9.50;57.60;;;;;;4358936;32;20693;-67
2022/04/01 11:09:55;;;;;;;0.50;0.50;;;9.60;57.70;;;;;;4347477;32;20089;-68
2022/04/01 11:12:22;;;;;;;0.55;0.55;;;9.80;57.20;;;;;;4354218;32;20538;-69
2022/04/01 11:14:59;;;;;;;0.30;0.30;;;10.00;57.40;;;;;;4359085;32;20116;-69
2022/04/01 11:17:27;;;;;;;0.40;0.40;;;10.20;57.00;;;;;;4357307;32;20438;-70
2022/04/01 11:20:04;;;;;;;0.35;0.35;;;10.20;56.00;;;;;;4356727;32;20078;-67
2022/04/01 11:22:42;;;;;;;0.28;0.28;;;10.20;56.20;;;;;;4356242;32;20079;-69
2022/04/01 11:25:32;;;;;;;0.70;0.68;;;10.20;56.60;;;;;;4348023;32;20834;-71
2022/04/01 11:28:01;;;;;;;0.93;0.90;;;10.60;56.00;;;;;;4340998;32;20102;-69
2022/04/01 11:30:30;;;;;;;0.30;0.30;;;10.50;54.80;;;;;;4347584;32;20107;-70
2022/04/01 11:32:59;;;;;;;0.85;0.57;;;10.30;55.20;;;;;;4357352;32;20089;-71
2022/04/01 11:35:29;;;;;;;0.30;0.30;;;10.10;55.70;;;;;;4351251;32;21655;-69
2022/04/01 11:37:55;;;;;;;0.40;0.40;;;10.30;54.70;;;;;;4357081;32;20192;-69
2022/04/01 11:40:27;;;;;;;0.50;0.50;;;10.40;55.00;;;;;;4345094;32;20079;-69
2022/04/01 11:43:11;;;;;;;0.77;0.60;;;10.20;54.60;;;;;;4342498;32;20864;-68
2022/04/01 11:45:39;;;;;;;1.23;1.12;;;10.20;54.60;;;;;;4342403;32;20323;-69
2022/04/01 11:48:26;;;;;;;0.40;0.40;;;10.40;55.20;;;;;;4343268;32;20110;-71
2022/04/01 11:50:55;;;;;;;0.43;0.43;;;10.50;54.70;;;;;;4354225;32;20162;-70
2022/04/01 11:53:24;;;;;;;0.62;0.50;;;10.80;54.60;;;;;;4355516;32;20507;-71
2022/04/01 11:55:50;;;;;;;1.02;0.80;;;10.90;54.40;;;;;;4355854;32;20118;-71
2022/04/01 11:58:16;;;;;;;18.42;0.90;;;11.60;52.80;;;;;;4359168;32;20066;-69
2022/04/01 12:00:42;;;;;;;0.30;0.30;;;11.30;52.60;;;;;;4362017;32;20095;-70
2022/04/01 12:03:09;;;;;;;0.22;0.22;;;11.20;53.30;;;;;;4358890;32;20086;-69
2022/04/01 12:05:35;;;;;;;0.30;0.30;;;11.50;53.00;;;;;;4363583;32;20094;-69
2022/04/01 12:09:01;;;;;;;0.40;0.40;;;11.60;51.90;;;;;;4365755;32;20099;-69
2022/04/01 12:10:57;;;;;;;1.55;1.45;;;11.60;52.30;;;;;;4362386;32;20158;-69
2022/04/01 12:13:25;;;;;;;0.60;0.60;;;11.90;51.70;;;;;;4367345;32;20105;-72
2022/04/01 12:15:52;;;;;;;0.50;0.50;;;11.90;51.80;;;;;;4364720;32;20097;-70
2022/04/01 12:18:21;;;;;;;0.40;0.40;;;11.80;51.40;;;;;;4366521;32;20118;-70
2022/04/01 12:20:50;;;;;;;0.50;0.50;;;12.00;51.70;;;;;;4359146;32;20482;-71
2022/04/01 12:23:18;;;;;;;8.98;0.60;;;12.20;51.30;;;;;;4356762;32;20792;-70
2022/04/01 12:25:45;;;;;;;0.20;0.20;;;12.20;50.40;;;;;;4364148;32;20093;-70
2022/04/01 12:28:13;;;;;;;0.50;0.50;;;12.10;50.50;;;;;;4364067;32;20157;-71
2022/04/01 12:30:42;;;;;;;1.08;1.00;;;12.20;50.40;;;;;;4359572;32;20098;-71
2022/04/01 12:33:11;;;;;;;0.20;0.20;;;11.90;50.40;;;;;;4347504;32;20341;-71
2022/04/01 12:36:03;;;;;;;0.50;0.50;;;12.00;50.80;;;;;;4360415;32;20126;-70
2022/04/01 12:38:31;;;;;;;1.08;0.52;;;12.00;50.60;;;;;;4365014;32;20102;-71
2022/04/01 12:41:00;;;;;;;0.60;0.60;;;12.10;50.30;;;;;;4365208;32;20062;-70
2022/04/01 12:43:28;;;;;;;3.72;1.50;;;12.00;49.90;;;;;;4365509;32;20103;-69
2022/04/01 12:46:14;;;;;;;0.40;0.40;;;12.10;50.20;;;;;;4371781;32;20581;-70
2022/04/01 12:48:42;;;;;;;1.75;0.45;;;12.20;49.60;;;;;;4367400;32;20079;-69
2022/04/01 12:51:07;;;;;;;0.47;0.47;;;12.30;49.10;;;;;;4372509;32;20109;-70
2022/04/01 12:53:35;;;;;;;1.12;1.02;;;12.10;49.30;;;;;;4372703;32;20522;-70
2022/04/01 12:56:19;;;;;;;0.30;0.30;;;11.70;49.50;;;;;;4372098;32;20074;-70
2022/04/01 12:58:52;;;;;;;12.35;0.73;;;11.20;49.90;;;;;;4376044;32;20623;-69
2022/04/01 13:01:20;;;;;;;0.50;0.50;;;11.20;51.10;;;;;;4371687;32;20141;-69
2022/04/01 13:03:48;;;;;;;0.40;0.40;;;11.30;50.20;;;;;;4373629;32;20562;-70
2022/04/01 13:06:14;;;;;;;0.60;0.60;;;11.60;50.50;;;;;;4375119;32;20471;-70
2022/04/01 13:08:40;;;;;;;0.40;0.40;;;11.50;50.80;;;;;;4374286;32;20593;-69
2022/04/01 13:11:14;;;;;;;0.40;0.40;;;11.70;50.30;;;;;;4373838;32;20119;-69
2022/04/01 13:13:41;;;;;;;0.35;0.35;;;11.70;50.00;;;;;;4370755;32;20071;-69